Time;durP1;ratioP1;P1;durP2;ratioP2;P2;SDS_P1;SDS_P2;PMS_P1;PMS_P2;Temp;Humidity;BMP_temperature;BMP_pressure;BME280_temperature;BME280_humidity;BME280_pressure;Samples;Min_cycle;Max_cycle;Signal;HPM_P1;HPM_P2
2022/06/03 00:00:07;;;;;;;23.67;22.60;;;17.40;40.30;;;;;;4993801;28;20512;-87
2022/06/03 00:02:50;;;;;;;22.87;21.97;;;17.40;40.80;;;;;;4994974;28;20421;-86
2022/06/03 00:05:25;;;;;;;22.93;22.03;;;17.40;41.40;;;;;;4993383;28;20444;-85
2022/06/03 00:08:02;;;;;;;22.43;21.43;;;17.40;41.20;;;;;;4993771;28;20432;-86
2022/06/03 00:10:53;;;;;;;23.80;22.50;;;17.50;41.00;;;;;;4994391;28;20417;-86
2022/06/03 00:13:33;;;;;;;22.20;21.20;;;17.40;40.80;;;;;;4992929;28;20320;-86
2022/06/03 00:16:05;;;;;;;23.43;22.43;;;17.40;41.30;;;;;;4993160;28;20420;-85
2022/06/03 00:18:52;;;;;;;23.73;22.53;;;17.40;41.50;;;;;;4993324;28;20420;-86
2022/06/03 00:21:38;;;;;;;23.50;22.40;;;17.30;41.60;;;;;;4994606;28;20464;-86
2022/06/03 00:24:39;;;;;;;23.40;22.30;;;17.30;41.90;;;;;;4994599;28;20409;-85
2022/06/03 00:27:49;;;;;;;23.07;22.07;;;17.20;42.20;;;;;;4992378;28;20417;-85
2022/06/03 00:30:37;;;;;;;23.50;22.43;;;17.20;42.60;;;;;;4995233;28;20762;-86
2022/06/03 00:33:22;;;;;;;23.27;22.27;;;17.10;42.70;;;;;;4992257;28;20433;-86
2022/06/03 00:36:00;;;;;;;23.20;22.00;;;17.10;43.10;;;;;;4993029;28;20880;-86
2022/06/03 00:38:28;;;;;;;22.57;21.47;;;17.10;43.20;;;;;;4993716;28;20406;-86
2022/06/03 00:41:05;;;;;;;23.73;22.63;;;17.10;43.10;;;;;;4993462;28;20566;-86
2022/06/03 00:43:46;;;;;;;22.47;21.47;;;17.10;43.10;;;;;;4992136;28;20487;-86
2022/06/03 00:46:21;;;;;;;23.80;22.80;;;17.10;43.40;;;;;;4992819;28;20795;-86
2022/06/03 00:48:59;;;;;;;23.93;22.73;;;17.00;43.40;;;;;;4993857;28;20714;-86
2022/06/03 00:51:58;;;;;;;23.83;22.75;;;17.00;43.90;;;;;;4992447;28;20764;-86
2022/06/03 00:54:42;;;;;;;24.90;23.60;;;16.90;44.00;;;;;;4991385;28;20511;-86
2022/06/03 00:57:26;;;;;;;25.23;23.47;;;16.90;44.10;;;;;;4992713;28;20421;-86
2022/06/03 01:00:13;;;;;;;24.00;22.97;;;17.00;44.00;;;;;;4991188;28;20475;-86
2022/06/03 01:03:12;;;;;;;24.00;22.90;;;17.00;43.90;;;;;;4989807;28;20429;-86
2022/06/03 01:05:50;;;;;;;23.27;22.13;;;16.90;44.10;;;;;;4991605;28;20420;-86
2022/06/03 01:08:35;;;;;;;23.70;22.60;;;16.90;44.20;;;;;;4990641;28;20945;-85
2022/06/03 01:11:10;;;;;;;23.47;22.37;;;16.80;44.60;;;;;;4992241;28;20859;-86
2022/06/03 01:13:48;;;;;;;23.77;22.57;;;16.80;44.30;;;;;;4993368;28;20819;-86
2022/06/03 01:16:44;;;;;;;23.37;22.37;;;16.90;44.00;;;;;;4985472;28;20448;-85
2022/06/03 01:19:25;;;;;;;23.70;22.60;;;16.80;44.10;;;;;;4990757;28;20417;-85
2022/06/03 01:22:29;;;;;;;23.70;22.37;;;16.70;44.50;;;;;;4991916;28;20877;-86
2022/06/03 01:24:55;;;;;;;23.53;22.37;;;16.70;44.80;;;;;;4989977;28;20413;-86
2022/06/03 01:27:20;;;;;;;23.63;22.63;;;16.70;44.80;;;;;;4992683;28;20421;-86
2022/06/03 01:30:11;;;;;;;23.70;22.60;;;16.70;44.90;;;;;;4989942;28;20174;-86
2022/06/03 01:33:03;;;;;;;23.43;22.33;;;16.70;44.90;;;;;;4992108;28;20251;-85
2022/06/03 01:35:50;;;;;;;22.60;21.60;;;16.70;45.10;;;;;;4990554;28;20491;-86
2022/06/03 01:38:42;;;;;;;23.13;22.03;;;16.70;45.20;;;;;;4992031;28;20413;-85
2022/06/03 01:41:14;;;;;;;23.47;22.47;;;16.60;45.60;;;;;;4989349;28;20989;-85
2022/06/03 01:44:01;;;;;;;23.40;22.30;;;16.60;45.80;;;;;;4990852;28;20453;-85
2022/06/03 01:46:32;;;;;;;23.40;22.03;;;16.60;45.80;;;;;;4990715;28;20428;-85
2022/06/03 01:48:57;;;;;;;23.23;22.13;;;16.60;46.20;;;;;;4991311;28;20418;-84
2022/06/03 01:51:38;;;;;;;24.00;22.90;;;16.50;46.10;;;;;;4989927;28;20467;-85
2022/06/03 01:54:22;;;;;;;23.57;22.37;;;16.50;46.10;;;;;;4991291;28;20174;-85
2022/06/03 01:57:03;;;;;;;23.63;22.53;;;16.60;46.00;;;;;;4990564;28;20772;-85
2022/06/03 02:00:03;;;;;;;23.40;22.30;;;16.50;46.20;;;;;;4993125;28;20417;-85
2022/06/03 02:02:48;;;;;;;23.27;22.17;;;16.50;46.10;;;;;;4990588;28;20956;-85
2022/06/03 02:05:35;;;;;;;23.73;22.73;;;16.60;46.40;;;;;;4990426;28;20408;-85
2022/06/03 02:08:10;;;;;;;23.70;22.60;;;16.50;47.30;;;;;;4990464;28;20409;-85
2022/06/03 02:11:03;;;;;;;23.43;22.23;;;16.40;47.30;;;;;;4990287;28;20408;-85
2022/06/03 02:13:50;;;;;;;24.23;23.17;;;16.40;47.20;;;;;;4990222;28;20421;-85
2022/06/03 02:16:34;;;;;;;24.20;23.10;;;16.40;47.30;;;;;;4988163;28;20421;-86
2022/06/03 02:19:39;;;;;;;24.70;23.50;;;16.30;48.00;;;;;;4989782;28;20413;-88
2022/06/03 02:22:23;;;;;;;24.10;23.00;;;16.30;48.70;;;;;;4960379;28;20534;-90
2022/06/03 02:25:05;;;;;;;24.23;23.03;;;16.30;48.40;;;;;;4992586;28;20431;-85
2022/06/03 02:27:33;;;;;;;24.00;23.00;;;16.30;48.40;;;;;;4990695;28;20409;-85
2022/06/03 02:30:27;;;;;;;25.13;23.97;;;16.30;48.80;;;;;;4989537;28;20417;-85
2022/06/03 02:32:59;;;;;;;24.97;23.87;;;16.30;48.90;;;;;;4990796;28;20420;-86
2022/06/03 02:35:48;;;;;;;26.03;24.37;;;16.30;48.90;;;;;;4990153;28;20992;-85
2022/06/03 02:38:40;;;;;;;26.33;24.93;;;16.20;49.40;;;;;;4990227;28;20484;-85
2022/06/03 02:41:21;;;;;;;25.63;24.33;;;16.20;49.30;;;;;;4990309;28;20464;-85
2022/06/03 02:44:11;;;;;;;24.70;23.50;;;16.20;49.70;;;;;;4991852;28;20402;-85
2022/06/03 02:47:06;;;;;;;25.40;24.20;;;16.20;49.80;;;;;;4989742;28;20784;-86
2022/06/03 02:50:04;;;;;;;25.93;24.80;;;16.20;49.70;;;;;;4989882;28;20852;-86
2022/06/03 02:52:59;;;;;;;24.70;23.60;;;16.30;49.30;;;;;;4990299;28;20439;-85
2022/06/03 02:55:30;;;;;;;25.93;24.77;;;16.30;48.80;;;;;;4989026;28;20508;-86
2022/06/03 02:58:19;;;;;;;24.70;23.50;;;16.20;49.30;;;;;;4991510;28;20412;-85
2022/06/03 03:01:10;;;;;;;25.77;24.67;;;16.20;49.50;;;;;;4991217;28;20851;-85
2022/06/03 03:04:08;;;;;;;25.37;23.97;;;16.20;49.70;;;;;;4989735;28;20431;-85
2022/06/03 03:06:58;;;;;;;27.10;25.80;;;16.10;49.70;;;;;;4990502;28;20445;-84
2022/06/03 03:10:04;;;;;;;29.10;27.80;;;16.10;49.60;;;;;;4992491;28;20421;-85
2022/06/03 03:13:19;;;;;;;28.63;27.23;;;16.20;49.10;;;;;;4991528;28;20463;-85
2022/06/03 03:16:09;;;;;;;28.10;26.50;;;16.30;48.90;;;;;;4934683;29;20423;-85
2022/06/03 03:18:53;;;;;;;26.30;25.10;;;16.20;49.10;;;;;;4935853;29;20502;-85
2022/06/03 03:21:24;;;;;;;26.07;24.73;;;16.20;49.20;;;;;;4976472;28;20465;-84
2022/06/03 03:24:19;;;;;;;27.30;26.00;;;16.10;49.30;;;;;;4991147;28;20910;-84
2022/06/03 03:27:06;;;;;;;28.03;26.60;;;16.20;49.20;;;;;;4989915;28;20453;-85
2022/06/03 03:29:54;;;;;;;28.23;26.73;;;16.20;49.00;;;;;;4992579;28;20424;-85
2022/06/03 03:32:42;;;;;;;26.47;25.27;;;16.20;49.20;;;;;;4993586;28;20436;-85
2022/06/03 03:35:17;;;;;;;27.27;25.97;;;16.20;49.50;;;;;;4992351;28;20766;-84
2022/06/03 03:38:01;;;;;;;27.60;26.20;;;16.10;49.90;;;;;;4993705;28;20436;-84
2022/06/03 03:41:14;;;;;;;28.23;26.93;;;16.10;50.20;;;;;;4993856;28;20455;-84
2022/06/03 03:44:04;;;;;;;28.80;27.40;;;16.10;50.70;;;;;;4993158;28;20405;-85
2022/06/03 03:46:50;;;;;;;28.50;26.97;;;16.10;50.40;;;;;;4994013;28;20496;-84
2022/06/03 03:49:58;;;;;;;26.77;25.40;;;16.10;50.10;;;;;;4982023;28;20953;-84
2022/06/03 03:52:48;;;;;;;28.00;26.70;;;16.10;50.20;;;;;;4991880;28;20420;-84
2022/06/03 03:55:39;;;;;;;28.37;27.07;;;16.10;50.20;;;;;;4993489;28;20409;-84
2022/06/03 03:58:19;;;;;;;28.30;27.00;;;16.10;50.50;;;;;;4991453;28;20417;-84
2022/06/03 04:01:26;;;;;;;28.57;27.33;;;16.10;50.70;;;;;;4992882;28;20475;-84
2022/06/03 04:04:07;;;;;;;30.60;29.27;;;16.10;50.90;;;;;;4991909;28;20429;-84
2022/06/03 04:06:57;;;;;;;32.43;30.47;;;16.10;50.50;;;;;;4993567;28;20405;-84
2022/06/03 04:10:03;;;;;;;30.63;29.33;;;16.10;50.80;;;;;;4993954;28;20517;-84
2022/06/03 04:12:44;;;;;;;29.47;28.17;;;16.10;50.80;;;;;;4993090;28;20413;-85
2022/06/03 04:15:47;;;;;;;28.40;27.10;;;16.10;51.10;;;;;;4994185;28;20423;-84
2022/06/03 04:18:40;;;;;;;26.60;25.40;;;16.10;51.10;;;;;;4992589;28;20420;-83
2022/06/03 04:21:20;;;;;;;28.30;27.00;;;16.10;51.20;;;;;;4991886;28;20887;-83
2022/06/03 04:24:20;;;;;;;28.93;27.53;;;16.10;51.10;;;;;;4994138;28;20410;-86
2022/06/03 04:27:22;;;;;;;27.97;26.67;;;16.10;51.90;;;;;;4993004;28;20917;-84
2022/06/03 04:30:26;;;;;;;28.20;27.00;;;16.10;52.20;;;;;;4991241;28;20409;-84
2022/06/03 04:33:09;;;;;;;27.63;26.33;;;16.10;52.10;;;;;;4993841;28;20436;-86
2022/06/03 04:36:23;;;;;;;29.10;27.30;;;16.10;52.90;;;;;;4991528;28;20425;-84
2022/06/03 04:39:26;;;;;;;28.07;26.67;;;16.10;53.00;;;;;;4958380;28;20414;-84
2022/06/03 04:42:28;;;;;;;27.93;26.53;;;16.10;52.50;;;;;;4990779;28;20519;-84
2022/06/03 04:44:54;;;;;;;28.37;26.30;;;16.10;52.00;;;;;;4992041;28;20796;-85
2022/06/03 04:47:49;;;;;;;29.33;27.90;;;16.10;52.10;;;;;;4992024;28;20524;-84
2022/06/03 04:50:39;;;;;;;29.20;27.37;;;16.20;52.50;;;;;;4991176;28;20588;-86
2022/06/03 04:53:17;;;;;;;28.83;27.33;;;16.10;52.20;;;;;;4991865;28;20761;-86
2022/06/03 04:55:58;;;;;;;28.03;26.60;;;16.20;52.40;;;;;;4990419;28;20413;-87
2022/06/03 04:58:49;;;;;;;27.43;26.03;;;16.30;52.10;;;;;;4990350;28;20499;-87
2022/06/03 05:01:38;;;;;;;28.03;26.70;;;16.30;51.60;;;;;;4990768;28;20468;-87
2022/06/03 05:04:34;;;;;;;28.37;26.73;;;16.40;51.50;;;;;;4991714;28;20421;-89
2022/06/03 05:07:09;;;;;;;29.47;28.13;;;16.40;52.40;;;;;;4992456;28;20444;-86
2022/06/03 05:09:50;;;;;;;29.27;27.77;;;16.40;51.30;;;;;;4990896;28;20405;-81
2022/06/03 05:12:53;;;;;;;29.97;28.27;;;16.40;51.80;;;;;;4990893;28;20469;-84
2022/06/03 05:15:52;;;;;;;29.33;27.80;;;16.40;51.70;;;;;;4992356;28;20421;-84
2022/06/03 05:18:21;;;;;;;29.27;27.73;;;16.50;51.80;;;;;;4990856;28;20425;-85
2022/06/03 05:21:07;;;;;;;31.60;29.80;;;16.60;52.00;;;;;;4990786;28;20873;-84
2022/06/03 05:23:45;;;;;;;30.30;28.90;;;16.60;51.50;;;;;;4990655;28;20416;-85
2022/06/03 05:26:29;;;;;;;30.47;28.97;;;16.70;51.20;;;;;;4989994;28;20421;-84
2022/06/03 05:28:55;;;;;;;28.97;27.67;;;16.70;51.10;;;;;;4991918;28;20437;-84
2022/06/03 05:31:26;;;;;;;29.47;28.07;;;16.80;50.80;;;;;;4991768;28;20460;-84
2022/06/03 05:34:17;;;;;;;29.63;28.23;;;16.80;50.80;;;;;;4992336;28;20170;-84
2022/06/03 05:36:46;;;;;;;29.33;28.03;;;16.80;50.30;;;;;;4991995;28;20947;-84
2022/06/03 05:39:39;;;;;;;29.93;28.40;;;16.90;50.20;;;;;;4990896;28;20945;-86
2022/06/03 05:42:29;;;;;;;29.70;28.30;;;16.90;50.20;;;;;;4989387;28;20847;-86
2022/06/03 05:45:28;;;;;;;30.17;28.67;;;17.10;50.50;;;;;;4988489;28;20424;-87
2022/06/03 05:48:06;;;;;;;30.17;28.67;;;17.10;50.70;;;;;;4990242;28;20413;-87
2022/06/03 05:50:40;;;;;;;25.70;24.43;;;17.10;49.00;;;;;;4988590;28;20429;-87
2022/06/03 05:53:25;;;;;;;28.57;27.17;;;17.20;48.90;;;;;;4989105;28;20512;-89
2022/06/03 05:56:04;;;;;;;27.57;26.17;;;17.30;49.20;;;;;;4990009;28;20921;-87
2022/06/03 05:58:51;;;;;;;31.03;29.20;;;17.30;49.10;;;;;;4989997;28;20431;-87
2022/06/03 06:01:51;;;;;;;29.00;27.30;;;17.40;48.60;;;;;;4989695;28;20476;-87
2022/06/03 06:04:16;;;;;;;32.67;30.63;;;17.40;48.60;;;;;;4988381;28;20399;-82
2022/06/03 06:06:51;;;;;;;30.60;28.90;;;17.40;48.10;;;;;;4989430;28;20600;-82
2022/06/03 06:09:38;;;;;;;30.10;28.40;;;17.50;49.00;;;;;;4988959;28;20194;-82
2022/06/03 06:12:26;;;;;;;30.83;29.13;;;17.60;48.90;;;;;;4989648;28;20427;-83
2022/06/03 06:15:13;;;;;;;32.40;30.57;;;17.70;48.40;;;;;;4990356;28;20422;-83
2022/06/03 06:18:16;;;;;;;30.30;28.70;;;17.80;48.10;;;;;;4989880;28;20421;-83
2022/06/03 06:20:53;;;;;;;28.87;27.50;;;17.90;47.40;;;;;;4988266;28;20467;-83
2022/06/03 06:23:29;;;;;;;30.53;29.00;;;17.90;47.60;;;;;;4989873;28;20421;-84
2022/06/03 06:26:01;;;;;;;29.47;28.00;;;18.00;47.50;;;;;;4989227;28;20416;-82
2022/06/03 06:29:05;;;;;;;29.20;26.87;;;18.00;47.70;;;;;;4990311;28;20901;-84
2022/06/03 06:32:04;;;;;;;28.93;27.57;;;18.10;48.70;;;;;;4988611;28;20771;-83
2022/06/03 06:34:42;;;;;;;28.20;26.90;;;18.10;47.60;;;;;;4988215;28;20432;-83
2022/06/03 06:37:29;;;;;;;25.83;24.47;;;18.20;48.20;;;;;;4989218;28;20468;-84
2022/06/03 06:40:31;;;;;;;30.00;28.40;;;18.30;47.60;;;;;;4989218;28;20448;-84
2022/06/03 06:43:09;;;;;;;30.03;28.43;;;18.40;47.10;;;;;;4977522;28;20435;-84
2022/06/03 06:45:51;;;;;;;28.63;27.20;;;18.40;46.90;;;;;;4989219;28;20764;-84
2022/06/03 06:48:29;;;;;;;29.80;28.00;;;18.50;47.00;;;;;;4988976;28;20421;-83
2022/06/03 06:51:16;;;;;;;30.47;28.93;;;18.50;46.50;;;;;;4989810;28;20425;-84
2022/06/03 06:53:42;;;;;;;29.20;27.70;;;18.50;46.40;;;;;;4991673;28;20488;-84
2022/06/03 06:56:27;;;;;;;28.00;25.80;;;18.60;47.00;;;;;;4989403;28;20451;-82
2022/06/03 06:59:07;;;;;;;26.30;24.97;;;18.70;47.00;;;;;;4990806;28;20656;-84
2022/06/03 07:01:35;;;;;;;28.13;26.20;;;18.80;46.30;;;;;;4989877;28;20544;-84
2022/06/03 07:04:06;;;;;;;28.30;26.80;;;18.80;46.70;;;;;;4989126;28;20524;-83
2022/06/03 07:06:42;;;;;;;28.27;26.77;;;18.90;47.30;;;;;;4990206;28;20959;-82
2022/06/03 07:09:11;;;;;;;28.00;26.60;;;19.00;46.30;;;;;;4988309;28;20913;-83
2022/06/03 07:11:48;;;;;;;29.20;27.50;;;19.00;46.40;;;;;;4989806;28;20505;-82
2022/06/03 07:14:20;;;;;;;28.43;27.00;;;19.00;46.50;;;;;;4991099;28;20424;-84
2022/06/03 07:20:12;;;;;;;30.20;28.10;;;19.10;46.70;;;;;;4991848;28;20829;-84
2022/06/03 07:23:02;;;;;;;29.80;27.83;;;19.30;45.50;;;;;;4990892;28;20431;-83
2022/06/03 07:25:31;;;;;;;28.63;27.23;;;19.40;45.40;;;;;;4989885;28;20417;-83
2022/06/03 07:28:26;;;;;;;28.50;27.00;;;19.50;46.00;;;;;;4990571;28;20508;-83
2022/06/03 07:31:21;;;;;;;30.10;28.13;;;19.60;46.40;;;;;;4991746;28;20416;-85
2022/06/03 07:34:01;;;;;;;27.97;26.67;;;19.60;45.50;;;;;;4967981;28;20420;-85
2022/06/03 07:36:50;;;;;;;28.50;27.07;;;19.70;44.80;;;;;;4991801;28;20437;-86
2022/06/03 07:39:28;;;;;;;27.87;26.23;;;19.80;45.00;;;;;;4990086;28;20476;-84
2022/06/03 07:42:10;;;;;;;27.90;26.50;;;19.90;45.90;;;;;;4990442;28;20468;-85
2022/06/03 07:44:49;;;;;;;27.30;25.97;;;20.20;43.80;;;;;;4991725;28;20601;-87
2022/06/03 07:47:15;;;;;;;27.27;25.77;;;20.20;43.50;;;;;;4991904;28;20421;-87
2022/06/03 07:49:44;;;;;;;27.30;25.90;;;20.30;43.50;;;;;;4992218;28;20528;-84
2022/06/03 07:52:33;;;;;;;28.33;26.87;;;20.30;42.90;;;;;;4993253;28;20417;-85
2022/06/03 07:55:05;;;;;;;27.43;25.90;;;20.50;42.80;;;;;;4990005;28;20421;-82
2022/06/03 07:57:30;;;;;;;28.33;26.60;;;20.50;43.90;;;;;;4990971;28;20454;-84
2022/06/03 08:00:00;;;;;;;28.97;27.47;;;20.50;43.10;;;;;;4991031;28;20453;-84
2022/06/03 08:02:26;;;;;;;28.80;27.30;;;20.60;42.90;;;;;;4989764;28;20648;-84
2022/06/03 08:05:07;;;;;;;28.50;26.90;;;20.60;43.10;;;;;;4991057;28;20426;-85
2022/06/03 08:13:08;;;;;;;28.67;27.17;;;20.90;41.10;;;;;;4993851;28;20992;-84
2022/06/03 08:15:40;;;;;;;30.23;28.73;;;21.00;41.60;;;;;;4994262;28;20413;-84
2022/06/03 08:18:07;;;;;;;30.27;28.80;;;21.10;41.30;;;;;;4993515;28;20423;-85
2022/06/03 08:20:50;;;;;;;29.70;28.20;;;21.20;41.40;;;;;;4993966;28;20440;-85
2022/06/03 08:23:18;;;;;;;29.40;27.80;;;21.20;41.70;;;;;;4977559;28;20170;-85
2022/06/03 08:25:46;;;;;;;31.73;30.03;;;21.20;42.20;;;;;;4993164;28;20413;-83
2022/06/03 08:28:17;;;;;;;28.03;26.73;;;21.30;40.90;;;;;;4994304;28;20417;-84
2022/06/03 08:30:46;;;;;;;29.13;27.60;;;21.40;41.30;;;;;;4994350;28;20499;-85
2022/06/03 08:33:15;;;;;;;27.70;26.43;;;21.50;39.00;;;;;;4992816;28;20449;-84
2022/06/03 08:35:47;;;;;;;31.37;29.67;;;21.60;39.70;;;;;;4993962;28;20436;-84
2022/06/03 08:38:19;;;;;;;29.20;27.80;;;21.50;40.00;;;;;;4993973;28;20417;-84
2022/06/03 08:41:11;;;;;;;28.70;27.40;;;21.60;40.10;;;;;;4994464;28;20901;-84
2022/06/03 08:43:54;;;;;;;29.40;28.07;;;21.70;40.40;;;;;;4993691;28;20425;-84
2022/06/03 08:46:44;;;;;;;29.33;27.97;;;21.70;40.30;;;;;;4993499;28;20504;-83
2022/06/03 08:49:17;;;;;;;28.67;27.27;;;22.00;38.30;;;;;;4975729;28;20408;-84
2022/06/03 08:51:51;;;;;;;30.23;28.70;;;22.00;39.10;;;;;;4983297;28;20421;-83
2022/06/03 08:54:29;;;;;;;29.97;28.67;;;22.00;38.70;;;;;;4994117;28;20428;-84
2022/06/03 08:57:07;;;;;;;29.10;27.90;;;22.00;39.50;;;;;;4994177;28;20409;-81
2022/06/03 08:59:47;;;;;;;30.13;28.50;;;22.10;38.40;;;;;;4995816;28;20421;-88
2022/06/03 09:02:31;;;;;;;29.97;28.40;;;22.20;37.80;;;;;;4992821;28;21032;-84
2022/06/03 09:05:06;;;;;;;28.53;27.23;;;22.60;36.30;;;;;;4994886;28;20405;-84
2022/06/03 09:07:45;;;;;;;27.90;26.70;;;22.70;36.20;;;;;;4993573;28;20408;-84
2022/06/03 09:10:40;;;;;;;28.23;27.03;;;22.90;35.70;;;;;;4992863;28;20483;-84
2022/06/03 09:13:39;;;;;;;29.73;28.53;;;23.00;35.00;;;;;;4993086;28;20473;-84
2022/06/03 09:16:08;;;;;;;29.60;28.30;;;23.00;35.20;;;;;;4993189;28;20436;-84
2022/06/03 09:18:36;;;;;;;29.97;28.50;;;23.00;35.50;;;;;;4993051;28;20406;-84
2022/06/03 09:21:09;;;;;;;27.20;26.00;;;23.10;34.60;;;;;;4992983;28;20465;-84
2022/06/03 09:23:48;;;;;;;28.43;27.20;;;23.10;34.80;;;;;;4992673;28;20409;-84
2022/06/03 09:26:36;;;;;;;28.57;27.17;;;23.20;34.40;;;;;;4992438;28;20417;-83
2022/06/03 09:29:05;;;;;;;28.70;27.27;;;23.10;34.60;;;;;;4993021;28;20417;-84
2022/06/03 09:31:32;;;;;;;29.07;27.77;;;23.20;34.60;;;;;;4992424;28;20424;-84
2022/06/03 09:33:58;;;;;;;28.30;26.80;;;23.30;34.50;;;;;;4992939;28;20475;-85
2022/06/03 09:36:26;;;;;;;28.10;26.80;;;23.40;33.50;;;;;;4992324;28;20572;-83
2022/06/03 09:38:57;;;;;;;27.63;26.43;;;23.60;32.50;;;;;;4992521;28;20492;-84
2022/06/03 09:41:27;;;;;;;30.20;28.60;;;23.70;33.90;;;;;;4992586;28;20500;-84
2022/06/03 09:43:54;;;;;;;28.17;26.80;;;23.70;33.10;;;;;;4992948;28;20409;-83
2022/06/03 09:46:24;;;;;;;27.83;26.63;;;23.70;33.10;;;;;;4991813;28;20547;-84
2022/06/03 09:48:50;;;;;;;28.13;26.90;;;23.80;33.20;;;;;;4992845;28;20495;-84
2022/06/03 09:51:55;;;;;;;28.70;27.40;;;23.90;33.20;;;;;;4992387;28;20417;-84
2022/06/03 09:54:18;;;;;;;28.37;26.97;;;23.90;33.30;;;;;;4993160;28;20437;-83
2022/06/03 09:56:48;;;;;;;27.47;26.17;;;23.90;34.20;;;;;;4992597;28;20436;-84
2022/06/03 09:59:14;;;;;;;27.77;26.57;;;23.90;33.30;;;;;;4992747;28;20790;-84
2022/06/03 10:01:39;;;;;;;27.80;26.60;;;24.10;32.00;;;;;;4992041;28;20472;-84
2022/06/03 10:04:06;;;;;;;27.00;25.77;;;24.20;32.40;;;;;;4992345;28;20213;-83
2022/06/03 10:06:50;;;;;;;27.80;26.40;;;24.30;32.70;;;;;;4991960;28;20224;-84
2022/06/03 10:17:49;;;;;;;28.67;27.30;;;24.80;30.60;;;;;;4994408;28;20464;-88
2022/06/03 10:20:16;;;;;;;26.73;25.50;;;24.90;30.90;;;;;;4992334;28;20417;-87
2022/06/03 10:22:44;;;;;;;26.27;25.10;;;24.80;31.30;;;;;;4994105;28;20496;-86
2022/06/03 10:25:11;;;;;;;27.30;25.90;;;24.90;30.30;;;;;;4991784;28;20440;-86
2022/06/03 10:27:37;;;;;;;25.67;24.33;;;24.80;31.50;;;;;;4993897;28;20413;-86
2022/06/03 10:30:05;;;;;;;25.43;24.13;;;24.70;31.30;;;;;;4992733;28;20432;-87
2022/06/03 10:32:32;;;;;;;25.10;24.00;;;24.60;30.00;;;;;;4992069;28;20182;-87
2022/06/03 10:35:16;;;;;;;24.20;23.20;;;24.60;30.30;;;;;;4991775;28;20441;-88
2022/06/03 10:37:53;;;;;;;26.70;25.50;;;24.90;29.40;;;;;;4992142;28;20417;-87
2022/06/03 10:40:21;;;;;;;26.70;25.60;;;24.90;29.70;;;;;;4994470;28;20901;-87
2022/06/03 10:42:48;;;;;;;26.17;24.97;;;24.90;29.90;;;;;;4993109;28;20410;-86
2022/06/03 10:45:15;;;;;;;25.27;23.93;;;25.10;30.00;;;;;;4991857;28;20425;-86
2022/06/03 10:47:43;;;;;;;25.40;24.30;;;25.30;29.80;;;;;;4992321;28;20526;-86
2022/06/03 10:50:30;;;;;;;23.63;22.63;;;25.30;29.40;;;;;;4992627;28;20432;-86
2022/06/03 11:02:13;;;;;;;24.43;23.33;;;25.80;27.40;;;;;;4956762;28;20473;-93
2022/06/03 11:04:40;;;;;;;24.93;23.67;;;25.80;27.30;;;;;;4938772;29;20407;-87
2022/06/03 11:07:29;;;;;;;24.53;23.53;;;25.80;27.00;;;;;;4974524;28;20952;-87
2022/06/03 11:10:06;;;;;;;24.87;23.77;;;25.70;26.60;;;;;;5000930;28;20562;-88
2022/06/03 11:12:32;;;;;;;25.40;23.30;;;25.70;26.60;;;;;;4991624;28;20420;-86
2022/06/03 11:14:58;;;;;;;25.30;24.20;;;25.60;27.30;;;;;;4991502;28;20568;-91
2022/06/03 11:17:34;;;;;;;24.53;23.53;;;25.30;27.80;;;;;;4992562;28;20658;-85
2022/06/03 11:20:01;;;;;;;24.30;23.30;;;25.30;27.70;;;;;;4992353;28;20416;-87
2022/06/03 11:22:31;;;;;;;24.70;23.70;;;25.20;27.90;;;;;;4989105;28;20825;-86
2022/06/03 11:25:11;;;;;;;24.57;23.47;;;25.10;28.10;;;;;;4991895;28;20456;-84
2022/06/03 11:28:04;;;;;;;25.73;24.53;;;25.10;28.40;;;;;;4992161;28;20436;-86
2022/06/03 11:30:43;;;;;;;25.53;24.07;;;24.90;28.40;;;;;;4991185;28;20504;-84
2022/06/03 11:33:24;;;;;;;24.57;23.17;;;24.90;28.90;;;;;;4991470;28;20405;-85
2022/06/03 11:36:09;;;;;;;24.00;23.00;;;24.80;29.40;;;;;;4991066;28;20432;-85
2022/06/03 11:38:43;;;;;;;24.10;23.00;;;24.80;29.50;;;;;;4990860;28;20425;-84
2022/06/03 11:41:16;;;;;;;23.60;22.60;;;24.90;29.30;;;;;;4991614;28;20470;-85
2022/06/03 11:43:57;;;;;;;24.30;23.20;;;24.80;29.40;;;;;;4990994;28;20901;-84
2022/06/03 11:46:41;;;;;;;23.37;22.37;;;24.80;29.70;;;;;;4992413;28;20417;-84
2022/06/03 11:49:09;;;;;;;24.87;23.73;;;24.80;29.90;;;;;;4998000;28;20796;-83
2022/06/03 11:51:36;;;;;;;23.90;22.57;;;24.80;31.50;;;;;;4994814;28;20432;-82
2022/06/03 11:54:03;;;;;;;24.87;23.80;;;24.70;33.10;;;;;;4994584;28;20435;-83
2022/06/03 11:56:33;;;;;;;25.30;24.20;;;24.70;34.00;;;;;;4994734;28;20475;-83
2022/06/03 11:59:06;;;;;;;25.47;24.47;;;24.60;33.90;;;;;;4994851;28;20440;-82
2022/06/03 12:01:51;;;;;;;24.20;23.10;;;24.50;33.80;;;;;;4994703;28;21061;-83
2022/06/03 12:04:31;;;;;;;25.40;24.40;;;24.50;34.80;;;;;;4996438;28;20448;-82
2022/06/03 12:07:03;;;;;;;26.47;25.07;;;24.50;35.70;;;;;;4993765;28;20436;-82
2022/06/03 12:09:50;;;;;;;25.30;24.30;;;24.50;35.70;;;;;;4995068;28;20425;-85
2022/06/03 12:15:34;;;;;;;25.23;24.23;;;24.40;34.90;;;;;;4996231;28;20416;-86
2022/06/03 12:18:06;;;;;;;27.60;26.07;;;24.40;34.20;;;;;;4995038;28;20428;-85
2022/06/03 12:20:31;;;;;;;26.50;25.17;;;24.40;35.10;;;;;;4995000;28;20429;-85
2022/06/03 12:23:12;;;;;;;26.57;25.47;;;24.40;35.10;;;;;;4994942;28;20413;-85
2022/06/03 12:25:45;;;;;;;27.60;26.30;;;24.50;34.80;;;;;;4994683;28;20590;-84
2022/06/03 12:28:41;;;;;;;26.00;24.50;;;24.50;34.70;;;;;;4994717;28;20837;-80
2022/06/03 12:31:30;;;;;;;26.23;24.90;;;24.50;33.80;;;;;;4995061;28;20775;-81
2022/06/03 12:34:09;;;;;;;25.67;24.57;;;24.60;35.10;;;;;;4986483;28;20421;-84
2022/06/03 12:36:47;;;;;;;25.43;24.17;;;24.50;33.80;;;;;;4994362;28;20444;-85
2022/06/03 12:39:38;;;;;;;23.80;22.80;;;24.50;33.80;;;;;;4994475;28;20433;-85
2022/06/03 12:42:26;;;;;;;25.73;24.20;;;24.50;33.80;;;;;;4994750;28;20460;-84
2022/06/03 12:45:04;;;;;;;25.50;24.30;;;24.40;34.40;;;;;;4994071;28;20517;-86
2022/06/03 12:47:35;;;;;;;25.40;24.30;;;24.50;34.60;;;;;;4994502;28;20421;-82
2022/06/03 12:50:06;;;;;;;24.80;23.80;;;24.40;34.40;;;;;;4994331;28;20589;-87
2022/06/03 12:52:34;;;;;;;24.40;23.40;;;24.40;34.40;;;;;;4981229;28;20535;-85
2022/06/03 12:55:22;;;;;;;25.33;23.27;;;24.40;34.70;;;;;;4984292;28;20425;-85
2022/06/03 12:58:22;;;;;;;25.73;24.43;;;24.30;34.60;;;;;;4994054;28;20420;-85
2022/06/03 13:00:51;;;;;;;24.87;23.67;;;24.30;35.80;;;;;;4961336;28;20468;-85
2022/06/03 13:03:17;;;;;;;23.70;22.70;;;24.40;36.80;;;;;;4994872;28;20410;-86
2022/06/03 13:06:05;;;;;;;23.83;22.70;;;24.30;37.00;;;;;;4993114;28;20918;-86
2022/06/03 13:08:34;;;;;;;23.50;22.50;;;24.30;37.20;;;;;;4993803;28;20720;-86
2022/06/03 13:11:30;;;;;;;24.60;23.13;;;24.30;38.40;;;;;;4994758;28;20429;-86
2022/06/03 13:13:56;;;;;;;24.37;22.93;;;24.30;39.10;;;;;;4993070;28;20782;-85
2022/06/03 13:16:31;;;;;;;25.33;24.17;;;24.20;38.50;;;;;;4992791;28;20413;-85
2022/06/03 13:19:01;;;;;;;24.93;23.53;;;24.20;39.10;;;;;;4993673;28;20239;-84
2022/06/03 13:21:29;;;;;;;25.53;24.33;;;24.20;39.00;;;;;;4992799;28;20465;-85
2022/06/03 13:24:00;;;;;;;24.93;23.73;;;24.20;39.50;;;;;;4993483;28;20481;-85
2022/06/03 13:26:27;;;;;;;24.73;23.63;;;24.20;39.80;;;;;;4992937;28;20432;-85
2022/06/03 13:29:01;;;;;;;24.97;23.53;;;24.20;39.50;;;;;;4993029;28;20429;-85
2022/06/03 13:31:42;;;;;;;24.33;23.10;;;24.20;40.20;;;;;;4993079;28;20991;-85
2022/06/03 13:34:10;;;;;;;25.20;23.90;;;24.10;40.80;;;;;;4994383;28;20771;-85
2022/06/03 13:36:39;;;;;;;24.60;23.60;;;24.10;40.90;;;;;;4993574;28;20433;-86
2022/06/03 13:39:07;;;;;;;26.53;25.13;;;23.90;41.10;;;;;;4993212;28;20425;-86
2022/06/03 13:44:46;;;;;;;26.50;25.10;;;23.90;41.50;;;;;;4993783;28;20409;-86
2022/06/03 13:47:28;;;;;;;24.90;23.80;;;23.80;41.70;;;;;;4984442;28;20437;-85
2022/06/03 13:50:12;;;;;;;25.90;24.50;;;23.80;42.40;;;;;;4986241;28;20901;-85
2022/06/03 13:52:48;;;;;;;25.93;24.73;;;23.90;42.90;;;;;;4992936;28;20417;-85
2022/06/03 13:55:42;;;;;;;25.30;24.20;;;23.90;43.70;;;;;;4992714;28;20432;-84
2022/06/03 13:58:29;;;;;;;26.13;24.83;;;23.80;43.70;;;;;;4991624;28;20428;-85
2022/06/03 14:01:43;;;;;;;25.50;24.20;;;23.80;43.70;;;;;;5003435;28;20544;-85
2022/06/03 14:04:20;;;;;;;24.70;23.60;;;23.70;43.60;;;;;;4991986;28;20429;-85
2022/06/03 14:07:00;;;;;;;25.47;24.07;;;23.70;43.60;;;;;;4991861;28;20519;-84
2022/06/03 14:09:46;;;;;;;25.03;23.93;;;23.70;42.00;;;;;;4992180;28;20445;-84